Forside
METAR-TAF:

METAR-TAF

Lufthavne :

Djibouti, Djibouti

Breddekreds: 11-33N, længdekreds: 043-10E, højde: 49 m

Aktuelle vejr

Denne rapport blev lavet for 2 timer og 18 minutter siden, kl. 11:00 UTC
Vind 13 kt fra øst
Temperatur 29°C
Fugtighed 70%
Tryk 1014 hPa
Sigt: 9000 m
Nogle få skyer i en højde af 2300 ft
tåge/dis

METAR: HDAM 221100Z 10013KT 9000 HZ FEW023 29/23 Q1014

Tid: 16:18 (13:18 UTC)

Vejrudsigter

Denne rapport blev lavet for 2 timer og 18 minutter siden, kl. 11:00 UTC
Foreløbig gælder fra 22 på 12 UTC til 23 på 12 UTC
Vind 10 kt fra øst
Sigt 10 km eller mere
Nogle få skyer i en højde af 2300 ft
ændring
fra 22 på 12 UTC til 22 på 15 UTC
Vind 3 kt fra varierende retninger
Sigt 10 km eller mere
Nogle få skyer i en højde af 2000 ft
ændring
fra 23 på 00 UTC til 23 på 06 UTC
Vind kt fra nord
Nogle få skyer i en højde af 2300 ft
Spredte skyer i en højde af 2000 ft

TAF: HDAM 221100Z 2212/2312 10010KT 9999 FEW023 BECMG 2212/2215 08010KT CAVOK BECMG2215/2218 VRB03KT FEW020 BECMG 2300/2306 00000KT FEW023 SCT020

Vejrobservationer og prognoser fra mere end 4000 lufthavne (METAR og TAF).

De gule og røde prikker repræsenterer de meteorologiske stationer.

Flyt musen over at se navnet på stationen.

Så klik over at se vejr observationer og prognoser.

At skifte det kort: Klik på de grønne knapper med et sort kors for at zoome ind; på den grønne knap med en bindestreg for at zoome ud; eller på de grønne pile for tilstødende kort.


METAR-TAF: